Time;durP1;ratioP1;P1;durP2;ratioP2;P2;SDS_P1;SDS_P2;PMS_P1;PMS_P2;Temp;Humidity;BMP_temperature;BMP_pressure;BME280_temperature;BME280_humidity;BME280_pressure;Samples;Min_cycle;Max_cycle;Signal;HPM_P1;HPM_P2
2023/10/25 00:00:59;;;;;;;2.53;1.07;;;8.20;99.90;;;;;;5077571;28;20194;-41
2023/10/25 00:03:25;;;;;;;4.93;1.30;;;8.20;99.90;;;;;;5095869;28;20198;-40
2023/10/25 00:05:51;;;;;;;6.67;1.50;;;8.20;99.90;;;;;;5061069;28;20193;-42
2023/10/25 00:08:16;;;;;;;4.20;1.00;;;8.10;99.90;;;;;;5077351;28;20575;-39
2023/10/25 00:10:42;;;;;;;4.27;1.67;;;8.10;99.90;;;;;;5077802;28;20183;-41
2023/10/25 00:13:08;;;;;;;5.43;1.33;;;8.10;99.90;;;;;;5095747;28;20248;-41
2023/10/25 00:15:33;;;;;;;2.67;1.20;;;8.10;99.90;;;;;;5077669;28;20265;-40
2023/10/25 00:18:04;;;;;;;4.10;1.40;;;8.00;99.90;;;;;;5078051;28;20178;-41
2023/10/25 00:20:30;;;;;;;6.87;1.60;;;8.10;99.90;;;;;;5096225;28;20190;-41
2023/10/25 00:22:55;;;;;;;4.03;1.30;;;8.10;99.90;;;;;;5095683;28;20236;-42
2023/10/25 00:25:22;;;;;;;5.77;2.00;;;8.10;99.90;;;;;;5095802;28;20250;-39
2023/10/25 00:27:48;;;;;;;5.00;1.43;;;8.10;99.90;;;;;;5077596;28;20205;-41
2023/10/25 00:30:14;;;;;;;3.40;1.33;;;8.10;99.90;;;;;;5095544;28;20195;-40
2023/10/25 00:32:39;;;;;;;5.77;1.80;;;8.10;99.90;;;;;;5096071;28;20517;-41
2023/10/25 00:35:05;;;;;;;7.30;1.50;;;8.10;99.90;;;;;;5095660;28;20175;-41
2023/10/25 00:37:31;;;;;;;2.03;1.30;;;8.10;99.90;;;;;;5095584;28;20178;-42
2023/10/25 00:39:57;;;;;;;2.57;1.40;;;8.10;99.90;;;;;;5095358;28;20175;-41
2023/10/25 00:42:22;;;;;;;2.90;1.43;;;8.10;99.90;;;;;;5095252;28;20228;-41
2023/10/25 00:44:48;;;;;;;3.27;1.27;;;8.10;99.90;;;;;;5095754;28;20179;-41
2023/10/25 00:47:15;;;;;;;2.60;1.20;;;8.10;99.90;;;;;;5095095;28;20281;-41
2023/10/25 00:49:40;;;;;;;6.27;1.67;;;8.10;99.90;;;;;;5077023;28;20167;-43
2023/10/25 00:52:06;;;;;;;5.00;1.40;;;8.10;99.90;;;;;;5095184;28;20185;-41
2023/10/25 00:54:32;;;;;;;5.93;1.50;;;8.10;99.90;;;;;;5095771;28;20206;-43
2023/10/25 00:56:57;;;;;;;4.03;1.43;;;8.20;99.90;;;;;;5077540;28;20187;-41
2023/10/25 00:59:24;;;;;;;5.03;1.70;;;8.20;99.90;;;;;;5077758;28;20179;-42
2023/10/25 01:01:51;;;;;;;4.93;1.60;;;8.10;99.90;;;;;;5095170;28;20203;-40
2023/10/25 01:04:17;;;;;;;5.20;1.77;;;8.10;99.90;;;;;;5075884;28;20256;-38
2023/10/25 01:06:44;;;;;;;3.70;1.60;;;8.10;99.90;;;;;;5076630;28;20199;-41
2023/10/25 01:09:14;;;;;;;7.53;1.37;;;8.10;99.90;;;;;;5076913;28;20179;-40
2023/10/25 01:11:50;;;;;;;3.47;1.67;;;8.10;99.90;;;;;;5095187;28;20191;-39
2023/10/25 01:14:16;;;;;;;4.90;1.87;;;8.10;99.90;;;;;;5091645;28;20199;-39
2023/10/25 01:16:42;;;;;;;4.27;1.60;;;8.10;99.90;;;;;;5076350;28;20210;-40
2023/10/25 01:19:09;;;;;;;6.63;1.63;;;8.10;99.90;;;;;;5094464;28;20619;-38
2023/10/25 01:21:34;;;;;;;4.30;1.93;;;8.10;99.90;;;;;;5059503;28;20666;-41
2023/10/25 01:24:00;;;;;;;4.27;1.43;;;8.10;99.90;;;;;;5094486;28;20196;-40
2023/10/25 01:26:26;;;;;;;2.90;1.50;;;8.10;99.90;;;;;;5076217;28;20183;-39
2023/10/25 01:28:52;;;;;;;3.53;1.60;;;8.10;99.90;;;;;;5076163;28;20661;-39
2023/10/25 01:34:41;;;;;;;4.63;1.80;;;8.00;99.90;;;;;;5094382;28;20216;-40
2023/10/25 01:37:07;;;;;;;5.70;1.80;;;8.00;99.90;;;;;;5043043;28;20183;-40
2023/10/25 01:39:33;;;;;;;5.13;1.70;;;8.10;99.90;;;;;;5094627;28;20192;-38
2023/10/25 01:41:59;;;;;;;6.43;1.77;;;8.10;99.90;;;;;;5076186;28;20255;-39
2023/10/25 01:44:25;;;;;;;2.63;1.43;;;8.00;99.90;;;;;;5075796;28;20178;-40
2023/10/25 01:46:51;;;;;;;2.00;1.33;;;8.00;99.90;;;;;;5076157;28;20691;-38
2023/10/25 01:49:17;;;;;;;3.60;1.70;;;8.00;99.90;;;;;;5094003;28;20207;-40
2023/10/25 01:51:48;;;;;;;6.03;1.30;;;8.00;99.90;;;;;;5075864;28;20682;-40
2023/10/25 01:57:35;;;;;;;6.73;2.00;;;7.90;99.90;;;;;;5093866;28;20639;-40
2023/10/25 02:00:03;;;;;;;3.93;1.33;;;7.90;99.90;;;;;;5094064;28;20285;-40
2023/10/25 02:02:32;;;;;;;4.27;1.20;;;7.90;99.90;;;;;;5093940;28;20252;-39
2023/10/25 02:05:01;;;;;;;3.17;1.40;;;7.90;99.90;;;;;;5075698;28;20175;-41
2023/10/25 02:07:29;;;;;;;2.80;1.20;;;7.90;99.90;;;;;;5094189;28;20195;-40
2023/10/25 02:09:55;;;;;;;3.87;1.60;;;7.90;99.90;;;;;;5093604;28;20249;-41
2023/10/25 02:12:21;;;;;;;3.97;1.47;;;8.00;99.90;;;;;;5093682;28;20252;-38
2023/10/25 02:14:46;;;;;;;5.93;1.47;;;8.00;99.90;;;;;;5093333;28;20197;-39
2023/10/25 02:17:12;;;;;;;2.67;1.20;;;8.10;99.90;;;;;;5075390;28;20186;-40
2023/10/25 02:19:41;;;;;;;3.17;1.17;;;8.10;99.90;;;;;;5093621;28;20657;-39
2023/10/25 02:22:07;;;;;;;4.07;1.30;;;8.20;99.90;;;;;;5058720;28;20598;-39
2023/10/25 02:24:33;;;;;;;6.50;1.53;;;8.20;99.90;;;;;;5091128;28;20186;-40
2023/10/25 02:26:58;;;;;;;7.13;1.80;;;8.20;99.90;;;;;;5093417;28;20195;-39
2023/10/25 02:29:24;;;;;;;2.43;1.57;;;8.20;99.90;;;;;;5093713;28;20204;-41
2023/10/25 02:31:49;;;;;;;3.23;1.90;;;8.20;99.90;;;;;;5075677;28;20194;-39
2023/10/25 02:34:17;;;;;;;4.37;1.77;;;8.20;99.90;;;;;;5093400;28;20178;-40
2023/10/25 02:36:42;;;;;;;5.37;1.50;;;8.20;99.90;;;;;;5093338;28;20231;-40
2023/10/25 02:39:10;;;;;;;7.17;1.87;;;8.20;99.90;;;;;;5093335;28;20175;-39
2023/10/25 02:41:39;;;;;;;3.77;1.60;;;8.20;99.90;;;;;;5058516;28;20762;-42
2023/10/25 02:44:06;;;;;;;4.30;1.80;;;8.10;99.90;;;;;;5095478;28;20657;-39
2023/10/25 02:46:32;;;;;;;6.50;1.60;;;8.10;99.90;;;;;;5097921;28;20178;-39
2023/10/25 02:48:57;;;;;;;3.40;1.90;;;8.10;99.90;;;;;;5097980;28;20703;-41
2023/10/25 02:51:23;;;;;;;5.70;1.90;;;8.10;99.90;;;;;;5096618;28;20217;-38
2023/10/25 02:53:52;;;;;;;3.80;1.80;;;8.10;99.90;;;;;;5097633;28;20183;-40
2023/10/25 02:56:19;;;;;;;5.40;2.00;;;8.00;99.90;;;;;;5097359;28;20535;-39
2023/10/25 02:58:45;;;;;;;3.03;1.77;;;8.00;99.90;;;;;;5097252;28;20178;-39
2023/10/25 03:01:27;;;;;;;3.80;2.07;;;8.00;99.90;;;;;;5079166;28;20191;-40
2023/10/25 03:03:53;;;;;;;6.97;2.40;;;7.90;99.90;;;;;;5097337;28;20725;-39
2023/10/25 03:06:20;;;;;;;2.83;1.67;;;7.90;99.90;;;;;;5097437;28;20208;-40
2023/10/25 03:08:46;;;;;;;5.00;1.70;;;7.90;99.90;;;;;;5097098;28;20222;-39
2023/10/25 03:11:12;;;;;;;9.37;1.77;;;8.00;99.90;;;;;;5096883;28;20187;-39
2023/10/25 03:13:39;;;;;;;4.33;1.50;;;8.00;99.90;;;;;;5078980;28;20190;-41
2023/10/25 03:16:05;;;;;;;3.07;1.77;;;8.00;99.90;;;;;;5097054;28;20186;-40
2023/10/25 03:18:32;;;;;;;3.33;1.37;;;8.00;99.90;;;;;;5096901;28;20258;-39
2023/10/25 03:21:02;;;;;;;4.73;1.50;;;8.00;99.90;;;;;;5097024;28;20244;-40
2023/10/25 03:23:30;;;;;;;4.63;1.80;;;8.00;99.90;;;;;;5097097;28;20183;-41
2023/10/25 03:25:56;;;;;;;4.87;1.60;;;8.00;99.90;;;;;;5096767;28;20181;-39
2023/10/25 03:28:21;;;;;;;3.87;1.67;;;8.00;99.90;;;;;;5096781;28;20195;-41
2023/10/25 03:30:48;;;;;;;5.70;1.97;;;8.00;99.90;;;;;;5096854;28;20678;-41
2023/10/25 03:33:14;;;;;;;1.70;1.20;;;8.00;99.90;;;;;;5096592;28;20193;-39
2023/10/25 03:35:41;;;;;;;7.77;1.50;;;8.00;99.90;;;;;;5078799;28;20183;-38
2023/10/25 03:38:07;;;;;;;3.87;2.03;;;8.00;99.90;;;;;;5096791;28;20183;-42
2023/10/25 03:40:35;;;;;;;5.70;1.43;;;8.00;99.90;;;;;;5096354;28;20729;-39
2023/10/25 03:43:01;;;;;;;5.77;2.03;;;8.00;99.90;;;;;;5096589;28;20543;-39
2023/10/25 03:45:26;;;;;;;3.10;1.40;;;8.00;99.90;;;;;;5096345;28;20240;-39
2023/10/25 03:47:52;;;;;;;3.87;1.47;;;8.00;99.90;;;;;;5078178;28;20679;-40
2023/10/25 03:50:17;;;;;;;4.87;1.40;;;8.00;99.90;;;;;;5096554;28;20280;-40
2023/10/25 03:52:43;;;;;;;6.70;1.63;;;8.10;99.90;;;;;;5096401;28;20182;-39
2023/10/25 03:55:09;;;;;;;6.47;2.10;;;8.00;99.90;;;;;;5077565;28;20201;-40
2023/10/25 03:57:36;;;;;;;3.83;1.77;;;8.10;99.90;;;;;;5078343;28;20165;-39
2023/10/25 04:00:03;;;;;;;5.43;1.50;;;8.10;99.90;;;;;;5095987;28;20206;-38
2023/10/25 04:02:29;;;;;;;3.20;1.40;;;8.10;99.90;;;;;;5077455;28;20257;-39
2023/10/25 04:04:56;;;;;;;4.33;1.80;;;8.10;99.90;;;;;;5077972;28;20720;-38
2023/10/25 04:07:25;;;;;;;5.67;1.77;;;8.10;99.90;;;;;;5095849;28;20252;-41
2023/10/25 04:09:50;;;;;;;3.00;1.30;;;8.10;99.90;;;;;;5077786;28;20286;-38
2023/10/25 04:12:17;;;;;;;3.73;1.40;;;8.20;99.90;;;;;;5095962;28;20654;-39
2023/10/25 04:14:46;;;;;;;4.57;1.53;;;8.20;99.90;;;;;;5096380;28;20185;-39
2023/10/25 04:17:12;;;;;;;3.53;1.43;;;8.20;99.90;;;;;;5095867;28;20175;-38
2023/10/25 04:19:39;;;;;;;2.47;1.60;;;8.20;99.90;;;;;;5095976;28;20227;-40
2023/10/25 04:22:07;;;;;;;6.60;1.60;;;8.30;99.90;;;;;;5095493;28;20213;-39
2023/10/25 04:24:33;;;;;;;1.70;1.47;;;8.30;99.90;;;;;;5095602;28;20171;-42
2023/10/25 04:27:01;;;;;;;5.30;1.33;;;8.30;99.90;;;;;;5075464;28;20256;-40
2023/10/25 04:29:28;;;;;;;6.13;1.97;;;8.30;99.90;;;;;;5095604;28;20198;-40
2023/10/25 04:31:54;;;;;;;2.20;1.30;;;8.40;99.90;;;;;;5077309;28;20247;-40
2023/10/25 04:34:25;;;;;;;5.00;1.80;;;8.40;99.90;;;;;;5095966;28;20618;-40
2023/10/25 04:36:51;;;;;;;3.40;1.13;;;8.40;99.90;;;;;;5095490;28;20174;-38
2023/10/25 04:39:17;;;;;;;5.80;1.83;;;8.40;99.90;;;;;;5095329;28;20226;-41
2023/10/25 04:41:43;;;;;;;4.70;1.40;;;8.40;99.90;;;;;;5095190;28;20598;-39
2023/10/25 04:44:08;;;;;;;6.27;1.63;;;8.40;99.90;;;;;;5095172;28;20686;-39
2023/10/25 04:46:34;;;;;;;4.03;1.80;;;8.40;99.90;;;;;;5095449;28;20257;-39
2023/10/25 04:49:06;;;;;;;3.50;1.83;;;8.40;99.90;;;;;;5095191;28;20182;-40
2023/10/25 04:51:31;;;;;;;3.90;1.23;;;8.40;99.90;;;;;;5077144;28;20205;-40
2023/10/25 04:53:57;;;;;;;3.43;1.80;;;8.40;99.90;;;;;;5077072;28;20540;-39
2023/10/25 04:56:23;;;;;;;4.37;1.90;;;8.40;99.90;;;;;;5077075;28;20179;-39
2023/10/25 04:58:49;;;;;;;3.40;1.73;;;8.40;99.90;;;;;;5077016;28;20182;-41
2023/10/25 05:01:16;;;;;;;3.80;1.77;;;8.40;99.90;;;;;;5077546;28;20195;-40
2023/10/25 05:03:54;;;;;;;4.63;1.90;;;8.40;99.90;;;;;;5094459;28;20240;-41
2023/10/25 05:06:23;;;;;;;3.23;1.80;;;8.40;99.90;;;;;;5092983;28;20203;-40
2023/10/25 05:08:51;;;;;;;6.17;1.87;;;8.40;99.90;;;;;;5094204;28;20171;-38
2023/10/25 05:11:18;;;;;;;2.93;1.77;;;8.40;99.90;;;;;;5075965;28;20197;-42
2023/10/25 05:13:44;;;;;;;6.03;1.90;;;8.30;99.90;;;;;;5093815;28;20175;-40
2023/10/25 05:16:11;;;;;;;3.00;1.70;;;8.30;99.90;;;;;;5093861;28;20259;-41
2023/10/25 05:18:37;;;;;;;6.63;1.90;;;8.30;99.90;;;;;;5093753;28;20681;-42
2023/10/25 05:21:04;;;;;;;3.50;1.80;;;8.30;99.90;;;;;;5094117;28;20196;-39
2023/10/25 05:23:32;;;;;;;5.00;1.97;;;8.30;99.90;;;;;;5094185;28;20182;-40
2023/10/25 05:26:00;;;;;;;3.30;1.60;;;8.30;99.90;;;;;;5076220;28;20190;-40
2023/10/25 05:28:30;;;;;;;4.77;1.97;;;8.40;99.90;;;;;;5076450;28;20214;-40
2023/10/25 05:31:01;;;;;;;3.57;2.00;;;8.40;99.90;;;;;;5094277;28;20671;-39
2023/10/25 05:33:31;;;;;;;4.27;2.20;;;8.40;99.90;;;;;;5093716;28;20263;-39
2023/10/25 05:35:59;;;;;;;6.60;2.50;;;8.40;99.90;;;;;;5075706;28;20537;-39
2023/10/25 05:38:26;;;;;;;4.63;2.17;;;8.40;99.90;;;;;;5093356;28;20183;-41
2023/10/25 05:40:53;;;;;;;5.23;2.57;;;8.40;99.90;;;;;;5093304;28;20256;-41
2023/10/25 05:43:23;;;;;;;5.97;2.33;;;8.40;99.90;;;;;;5093796;28;20188;-40
2023/10/25 05:45:48;;;;;;;6.27;2.37;;;8.50;99.90;;;;;;5093383;28;20175;-39
2023/10/25 05:48:15;;;;;;;3.27;2.30;;;8.40;99.90;;;;;;5093224;28;20556;-40
2023/10/25 05:50:47;;;;;;;6.10;2.37;;;8.40;99.90;;;;;;5075658;28;20203;-41
2023/10/25 05:53:14;;;;;;;4.77;2.87;;;8.50;99.90;;;;;;5093699;28;20647;-41
2023/10/25 05:55:55;;;;;;;6.63;2.97;;;8.50;99.90;;;;;;5093441;28;20174;-39
2023/10/25 05:58:21;;;;;;;4.83;3.60;;;8.50;99.90;;;;;;5093950;28;20212;-38
2023/10/25 06:00:52;;;;;;;5.43;3.30;;;8.40;99.90;;;;;;5093018;28;20210;-40
2023/10/25 06:03:21;;;;;;;3.80;2.97;;;8.40;99.90;;;;;;5055070;28;1085820;-39
2023/10/25 06:05:52;;;;;;;6.00;2.90;;;8.40;99.90;;;;;;5093899;28;20276;-41
2023/10/25 06:08:21;;;;;;;6.40;2.80;;;8.40;99.90;;;;;;5076477;28;20598;-40
2023/10/25 06:10:48;;;;;;;9.57;2.80;;;8.40;99.90;;;;;;5073917;28;20293;-40
2023/10/25 06:13:13;;;;;;;5.83;3.13;;;8.40;99.90;;;;;;5093841;28;20266;-40
2023/10/25 06:15:40;;;;;;;8.63;3.30;;;8.40;99.90;;;;;;5074348;28;20714;-39
2023/10/25 06:18:07;;;;;;;9.43;2.83;;;8.50;99.90;;;;;;5093525;28;20179;-40
2023/10/25 06:20:34;;;;;;;6.53;3.47;;;8.50;99.90;;;;;;5093732;28;20203;-40
2023/10/25 06:23:00;;;;;;;3.97;2.77;;;8.60;99.90;;;;;;5093618;28;20207;-40
2023/10/25 06:25:30;;;;;;;5.57;2.67;;;8.50;99.90;;;;;;5093813;28;20192;-40
2023/10/25 06:27:57;;;;;;;4.47;3.30;;;8.60;99.90;;;;;;5093445;28;20316;-39
2023/10/25 06:30:23;;;;;;;3.73;2.87;;;8.60;99.90;;;;;;5075717;28;20194;-39
2023/10/25 06:32:49;;;;;;;5.03;3.20;;;8.60;99.90;;;;;;5075737;28;20202;-39
2023/10/25 06:35:14;;;;;;;5.53;2.63;;;8.60;99.90;;;;;;5093369;28;20689;-40
2023/10/25 06:37:42;;;;;;;5.50;3.07;;;8.60;99.90;;;;;;5093396;28;20637;-39
2023/10/25 06:40:08;;;;;;;7.17;2.93;;;8.60;99.90;;;;;;5093506;28;20213;-40
2023/10/25 06:42:35;;;;;;;5.53;3.10;;;8.60;99.90;;;;;;5075474;28;20202;-41
2023/10/25 06:45:02;;;;;;;5.53;3.00;;;8.60;99.90;;;;;;5075641;28;20274;-40
2023/10/25 06:47:33;;;;;;;5.57;3.20;;;8.70;99.90;;;;;;5093540;28;20297;-41
2023/10/25 06:49:59;;;;;;;7.77;2.77;;;8.70;99.90;;;;;;5093567;28;20520;-42
2023/10/25 06:52:24;;;;;;;11.37;3.03;;;8.70;99.90;;;;;;5093618;28;20194;-41
2023/10/25 06:54:50;;;;;;;7.83;3.00;;;8.70;99.90;;;;;;5093287;28;20532;-40
2023/10/25 06:57:16;;;;;;;6.63;2.73;;;8.70;99.90;;;;;;5074532;28;20191;-40
2023/10/25 06:59:42;;;;;;;4.03;2.47;;;8.70;99.90;;;;;;5093461;28;20543;-40
2023/10/25 07:02:17;;;;;;;7.23;3.07;;;8.80;99.90;;;;;;5093722;28;20685;-42
2023/10/25 07:04:46;;;;;;;4.60;2.33;;;8.80;99.90;;;;;;5092995;28;20190;-41
2023/10/25 07:07:13;;;;;;;4.33;2.03;;;8.90;99.90;;;;;;5093069;28;20230;-39
2023/10/25 07:09:41;;;;;;;6.60;2.47;;;8.90;99.90;;;;;;5075103;28;20587;-40
2023/10/25 07:12:07;;;;;;;8.30;2.10;;;9.00;99.90;;;;;;5093166;28;20225;-40
2023/10/25 07:14:32;;;;;;;3.80;1.87;;;9.00;99.90;;;;;;5093148;28;20174;-40
2023/10/25 07:16:58;;;;;;;3.90;2.30;;;9.00;99.90;;;;;;5093412;28;20179;-41
2023/10/25 07:19:24;;;;;;;9.90;2.17;;;9.10;99.90;;;;;;5093389;28;20177;-40
2023/10/25 07:21:49;;;;;;;4.40;2.60;;;9.10;99.90;;;;;;5092992;28;20195;-39
2023/10/25 07:24:15;;;;;;;4.67;2.10;;;9.10;99.90;;;;;;5093094;28;20184;-42
2023/10/25 07:26:44;;;;;;;6.27;2.13;;;9.10;99.90;;;;;;5093410;28;20532;-40
2023/10/25 07:29:09;;;;;;;7.20;2.03;;;9.20;99.90;;;;;;5093207;28;20662;-40
2023/10/25 07:31:35;;;;;;;4.80;1.93;;;9.20;99.90;;;;;;5097095;28;20234;-39
2023/10/25 07:34:01;;;;;;;4.17;1.93;;;9.20;99.90;;;;;;5078687;28;20267;-39
2023/10/25 07:36:26;;;;;;;4.37;1.73;;;9.20;99.90;;;;;;5096697;28;20176;-39
2023/10/25 07:38:53;;;;;;;5.60;1.67;;;9.30;99.90;;;;;;5096599;28;20171;-40
2023/10/25 07:41:22;;;;;;;2.17;1.60;;;9.30;99.90;;;;;;5096819;28;20207;-39
2023/10/25 07:43:48;;;;;;;6.17;2.00;;;9.30;99.90;;;;;;5096540;28;20182;-40
2023/10/25 07:46:13;;;;;;;4.50;1.90;;;9.30;99.90;;;;;;5097054;28;20607;-40
2023/10/25 07:48:40;;;;;;;3.10;1.77;;;9.40;99.90;;;;;;5095846;28;20327;-41
2023/10/25 07:51:07;;;;;;;3.40;1.90;;;9.40;99.90;;;;;;5096358;28;20763;-40
2023/10/25 07:53:32;;;;;;;5.30;1.67;;;9.40;99.90;;;;;;5096594;28;20175;-40
2023/10/25 07:56:05;;;;;;;3.93;2.00;;;9.50;99.90;;;;;;5096662;28;20183;-39
2023/10/25 07:58:31;;;;;;;5.97;1.60;;;9.60;99.90;;;;;;5079031;28;20163;-38
2023/10/25 08:00:58;;;;;;;3.83;1.80;;;9.60;99.90;;;;;;5096150;28;20198;-42
2023/10/25 08:03:26;;;;;;;5.30;2.13;;;9.70;99.90;;;;;;5096052;28;20217;-40
2023/10/25 08:05:52;;;;;;;3.80;1.87;;;9.70;99.90;;;;;;5078678;28;20263;-41
2023/10/25 08:08:18;;;;;;;4.60;2.13;;;9.70;99.90;;;;;;5096085;28;20199;-40
2023/10/25 08:10:44;;;;;;;5.07;2.10;;;9.70;99.90;;;;;;5096102;28;20244;-40
2023/10/25 08:13:09;;;;;;;4.97;2.40;;;9.80;99.90;;;;;;5096001;28;20232;-40
2023/10/25 08:15:36;;;;;;;5.17;2.33;;;9.80;99.90;;;;;;5096175;28;20191;-40
2023/10/25 08:18:05;;;;;;;4.60;2.13;;;9.80;99.90;;;;;;5078312;28;20549;-41
2023/10/25 08:20:36;;;;;;;6.47;2.50;;;9.80;99.90;;;;;;5095844;28;20761;-41
2023/10/25 08:23:02;;;;;;;4.60;2.07;;;9.80;99.90;;;;;;5096124;28;20515;-40
2023/10/25 08:25:28;;;;;;;3.97;2.57;;;9.80;99.90;;;;;;5060993;28;20191;-41
2023/10/25 08:27:58;;;;;;;6.80;2.30;;;9.80;99.90;;;;;;5095584;28;20209;-41
2023/10/25 08:30:23;;;;;;;6.57;2.70;;;9.80;99.90;;;;;;5095500;28;20275;-43
2023/10/25 08:32:49;;;;;;;10.43;2.70;;;9.80;99.90;;;;;;5077335;28;20206;-42
2023/10/25 08:35:17;;;;;;;6.33;2.10;;;9.80;99.90;;;;;;5095866;28;20183;-41
2023/10/25 08:38:20;;;;;;;5.30;2.33;;;9.80;99.90;;;;;;5095430;28;20191;-40
2023/10/25 08:40:46;;;;;;;4.17;1.70;;;9.70;99.90;;;;;;5094406;28;20206;-42
2023/10/25 08:43:16;;;;;;;5.83;1.93;;;9.70;99.90;;;;;;5077211;28;20638;-42
2023/10/25 08:45:44;;;;;;;3.57;1.90;;;9.70;99.90;;;;;;5095903;28;20160;-41
2023/10/25 08:48:10;;;;;;;3.57;1.97;;;9.70;99.90;;;;;;5077026;28;20234;-41
2023/10/25 08:50:35;;;;;;;5.90;1.90;;;9.70;99.90;;;;;;5077090;28;20230;-40
2023/10/25 08:53:01;;;;;;;4.73;2.00;;;9.70;99.90;;;;;;5077165;28;20549;-41
2023/10/25 08:55:27;;;;;;;3.20;2.13;;;9.70;99.90;;;;;;5095696;28;20186;-40
2023/10/25 08:57:56;;;;;;;4.40;2.10;;;9.70;99.90;;;;;;5094992;28;20187;-40
2023/10/25 09:00:23;;;;;;;2.83;2.00;;;9.70;99.90;;;;;;5095132;28;20813;-41
2023/10/25 09:02:49;;;;;;;3.90;2.00;;;9.70;99.90;;;;;;5077308;28;20186;-40
2023/10/25 09:05:15;;;;;;;4.57;2.40;;;9.80;99.90;;;;;;5076662;28;20197;-41
2023/10/25 09:07:41;;;;;;;2.10;1.53;;;9.80;99.90;;;;;;5076797;28;20293;-40
2023/10/25 09:10:22;;;;;;;4.67;2.13;;;9.80;99.90;;;;;;5077000;28;20225;-39
2023/10/25 09:12:49;;;;;;;4.33;1.97;;;9.90;99.90;;;;;;5077331;22;20690;-44
2023/10/25 09:15:37;;;;;;;5.67;2.40;;;9.90;99.90;;;;;;5038889;28;20544;-41
2023/10/25 09:18:05;;;;;;;5.17;2.17;;;9.90;99.90;;;;;;5074146;28;20164;-40
2023/10/25 09:20:36;;;;;;;4.93;2.20;;;9.90;99.90;;;;;;5047181;28;20195;-43
2023/10/25 09:23:12;;;;;;;4.43;2.50;;;10.00;99.90;;;;;;5059927;28;20226;-41
2023/10/25 09:25:41;;;;;;;3.43;2.53;;;10.00;99.90;;;;;;5076477;28;20178;-41
2023/10/25 09:28:27;;;;;;;5.00;2.83;;;10.00;99.90;;;;;;5094305;28;20239;-40
2023/10/25 09:31:01;;;;;;;6.07;2.87;;;10.00;99.90;;;;;;5075345;28;20213;-40
2023/10/25 09:33:37;;;;;;;5.23;3.00;;;10.10;99.90;;;;;;5076001;28;20547;-41
2023/10/25 09:36:13;;;;;;;3.70;2.83;;;10.10;99.90;;;;;;5094926;28;20608;-41
2023/10/25 09:38:51;;;;;;;4.83;2.37;;;10.10;99.90;;;;;;5077716;28;20500;-42
2023/10/25 09:41:19;;;;;;;3.50;1.93;;;10.10;99.90;;;;;;5060650;28;20286;-40
2023/10/25 09:43:50;;;;;;;7.03;2.47;;;10.20;99.90;;;;;;5095092;28;20539;-41
2023/10/25 09:46:31;;;;;;;3.77;1.70;;;10.20;99.90;;;;;;5076972;28;20542;-41
2023/10/25 09:49:15;;;;;;;3.90;1.40;;;10.20;99.90;;;;;;5094183;28;20168;-41
2023/10/25 09:51:54;;;;;;;3.40;1.40;;;10.30;99.90;;;;;;5076104;28;20195;-40
2023/10/25 09:54:46;;;;;;;2.63;1.70;;;10.30;99.90;;;;;;5093942;28;20171;-42
2023/10/25 09:57:14;;;;;;;4.60;1.60;;;10.40;99.90;;;;;;5094402;28;20158;-41
2023/10/25 09:59:47;;;;;;;4.53;1.70;;;10.50;99.90;;;;;;5075997;28;20191;-42
2023/10/25 10:03:09;;;;;;;2.67;1.23;;;10.50;99.90;;;;;;5094096;28;20303;-41
2023/10/25 10:06:11;;;;;;;1.93;1.20;;;10.50;99.90;;;;;;5093137;28;20615;-43
2023/10/25 10:09:19;;;;;;;2.57;1.33;;;10.60;99.90;;;;;;5093799;28;20281;-42
2023/10/25 10:11:59;;;;;;;2.03;1.37;;;10.60;99.90;;;;;;5075757;28;20208;-41
2023/10/25 10:14:30;;;;;;;2.10;1.37;;;10.60;99.90;;;;;;5076891;28;20193;-41
2023/10/25 10:16:59;;;;;;;3.00;1.37;;;10.60;99.90;;;;;;5094211;28;20170;-42
2023/10/25 10:19:32;;;;;;;1.67;1.17;;;10.70;99.90;;;;;;5093925;28;20183;-40
2023/10/25 10:22:18;;;;;;;2.13;1.53;;;10.70;99.90;;;;;;5060386;28;20223;-43
2023/10/25 10:25:00;;;;;;;1.20;1.10;;;10.70;99.90;;;;;;5093725;28;20229;-42
2023/10/25 10:28:01;;;;;;;2.73;1.33;;;10.70;99.90;;;;;;5075465;28;20206;-41
2023/10/25 10:30:34;;;;;;;1.47;1.37;;;10.70;99.90;;;;;;5075628;28;20570;-40
2023/10/25 10:33:01;;;;;;;2.57;1.40;;;10.70;99.90;;;;;;5058807;28;20551;-41
2023/10/25 10:35:28;;;;;;;1.93;1.40;;;10.70;99.90;;;;;;5093905;28;20181;-41
2023/10/25 10:38:00;;;;;;;2.63;1.50;;;10.70;99.90;;;;;;5075432;28;20235;-40
2023/10/25 10:40:39;;;;;;;2.50;1.53;;;10.70;99.90;;;;;;5093969;28;20277;-42
2023/10/25 10:43:07;;;;;;;2.87;1.50;;;10.70;99.90;;;;;;5093690;28;20267;-42
2023/10/25 10:45:34;;;;;;;1.63;1.53;;;10.70;99.90;;;;;;5075355;28;20265;-41
2023/10/25 10:48:21;;;;;;;2.70;1.60;;;10.70;99.90;;;;;;5075256;28;20262;-41
2023/10/25 10:50:49;;;;;;;1.70;1.30;;;10.70;99.90;;;;;;5093470;28;20185;-44
2023/10/25 10:53:17;;;;;;;2.30;1.53;;;10.70;99.90;;;;;;5093405;28;20262;-43
2023/10/25 10:55:50;;;;;;;1.33;1.23;;;10.70;99.90;;;;;;5093313;28;20633;-41
2023/10/25 10:58:20;;;;;;;2.00;1.40;;;10.70;99.90;;;;;;5075272;28;20761;-42
2023/10/25 11:00:46;;;;;;;1.20;1.10;;;10.70;99.90;;;;;;5073954;28;20213;-42
2023/10/25 11:03:15;;;;;;;3.57;1.10;;;10.70;99.90;;;;;;5093174;28;20660;-43
2023/10/25 11:05:42;;;;;;;6.17;1.80;;;10.70;99.90;;;;;;5095962;28;20175;-43
2023/10/25 11:08:20;;;;;;;1.87;1.37;;;10.60;99.90;;;;;;5096593;28;20211;-44
2023/10/25 11:10:46;;;;;;;2.73;1.60;;;10.60;99.90;;;;;;5078540;28;20584;-41
2023/10/25 11:13:17;;;;;;;1.60;1.23;;;10.60;99.90;;;;;;5078734;28;20194;-43
2023/10/25 11:15:43;;;;;;;2.73;1.70;;;10.60;99.90;;;;;;5079530;28;20155;-43
2023/10/25 11:18:17;;;;;;;6.80;1.77;;;10.60;99.90;;;;;;5062158;28;20190;-42
2023/10/25 11:20:43;;;;;;;5.00;1.60;;;10.60;99.90;;;;;;5077039;28;20618;-42
2023/10/25 11:23:10;;;;;;;3.93;1.67;;;10.60;99.90;;;;;;5078694;28;20179;-42
2023/10/25 11:25:37;;;;;;;3.03;1.30;;;10.60;99.90;;;;;;5096851;28;20174;-42
2023/10/25 11:28:04;;;;;;;1.37;1.27;;;10.60;99.90;;;;;;5096685;28;20282;-42
2023/10/25 11:30:34;;;;;;;2.63;1.30;;;10.50;99.90;;;;;;5078627;28;20273;-43
2023/10/25 11:33:01;;;;;;;3.23;1.50;;;10.50;99.90;;;;;;5078574;28;20241;-43
2023/10/25 11:35:32;;;;;;;3.30;1.63;;;10.50;99.90;;;;;;5078462;28;20231;-43
2023/10/25 11:37:58;;;;;;;1.27;1.20;;;10.50;99.90;;;;;;5096670;28;20564;-43
2023/10/25 11:40:54;;;;;;;2.87;1.50;;;10.50;99.90;;;;;;5078268;28;20205;-42
2023/10/25 11:43:20;;;;;;;3.13;1.50;;;10.50;99.90;;;;;;5078048;28;20174;-42
2023/10/25 11:45:45;;;;;;;4.20;1.90;;;10.50;99.90;;;;;;5061581;28;20228;-41
2023/10/25 11:48:13;;;;;;;3.33;1.50;;;10.50;99.90;;;;;;5096281;28;20289;-41
2023/10/25 11:50:44;;;;;;;2.83;1.60;;;10.50;99.90;;;;;;5062511;28;20198;-43
2023/10/25 11:53:13;;;;;;;5.40;1.57;;;10.50;99.90;;;;;;5095899;28;20196;-42
2023/10/25 11:55:40;;;;;;;0.83;0.83;;;10.50;99.90;;;;;;5078044;28;20179;-44
2023/10/25 11:58:05;;;;;;;1.57;0.93;;;10.50;99.90;;;;;;5096172;28;20699;-43
2023/10/25 12:00:31;;;;;;;1.60;1.07;;;10.50;99.90;;;;;;5096383;28;20289;-42
2023/10/25 12:02:57;;;;;;;2.90;1.50;;;10.50;99.90;;;;;;5078007;28;20190;-43
2023/10/25 12:05:26;;;;;;;2.93;1.20;;;10.50;99.90;;;;;;5096127;28;20178;-42
2023/10/25 12:07:55;;;;;;;1.83;1.10;;;10.50;99.90;;;;;;5077917;28;20195;-42
2023/10/25 12:10:24;;;;;;;3.30;1.57;;;10.50;99.90;;;;;;5061137;28;20198;-43
2023/10/25 12:12:54;;;;;;;1.50;1.40;;;10.50;99.90;;;;;;5078544;28;20275;-42
2023/10/25 12:15:20;;;;;;;1.83;1.20;;;10.50;99.90;;;;;;5095915;28;20556;-42
2023/10/25 12:17:46;;;;;;;1.40;1.30;;;10.50;99.90;;;;;;5096459;28;20191;-43
2023/10/25 12:20:12;;;;;;;1.63;1.53;;;10.50;99.90;;;;;;5077662;28;20204;-42
2023/10/25 12:22:40;;;;;;;1.10;1.00;;;10.50;99.90;;;;;;5095968;28;20193;-43
2023/10/25 12:25:06;;;;;;;3.40;1.40;;;10.50;99.90;;;;;;5095713;28;20633;-43
2023/10/25 12:27:32;;;;;;;1.70;1.23;;;10.50;99.90;;;;;;5077833;28;20221;-42
2023/10/25 12:29:58;;;;;;;1.40;1.30;;;10.50;99.90;;;;;;5095836;28;20186;-44
2023/10/25 12:33:13;;;;;;;3.27;1.20;;;10.50;99.90;;;;;;5095918;28;20174;-43
2023/10/25 12:35:41;;;;;;;5.87;1.00;;;10.50;99.90;;;;;;5077375;28;20646;-42
2023/10/25 12:38:07;;;;;;;1.40;1.17;;;10.50;99.90;;;;;;5077282;28;20194;-42
2023/10/25 12:40:33;;;;;;;5.40;1.10;;;10.50;99.90;;;;;;5077339;28;20199;-42
2023/10/25 12:43:00;;;;;;;2.07;1.20;;;10.60;99.90;;;;;;5095785;28;20527;-43
2023/10/25 12:45:26;;;;;;;4.63;1.10;;;10.50;99.90;;;;;;5077386;28;20182;-43
2023/10/25 12:47:51;;;;;;;6.60;0.97;;;10.60;99.90;;;;;;5077211;28;20206;-42
2023/10/25 12:50:19;;;;;;;2.90;1.40;;;10.50;99.90;;;;;;5096252;28;20195;-43
2023/10/25 12:52:45;;;;;;;1.17;1.07;;;10.60;99.90;;;;;;5061433;28;20235;-42
2023/10/25 12:55:11;;;;;;;2.00;1.20;;;10.60;99.90;;;;;;5078354;28;20178;-44
2023/10/25 12:57:43;;;;;;;1.27;1.03;;;10.60;99.90;;;;;;5078517;28;20246;-43
2023/10/25 13:00:10;;;;;;;2.47;1.50;;;10.60;99.90;;;;;;5096407;28;20230;-42
2023/10/25 13:02:36;;;;;;;1.57;1.20;;;10.60;99.90;;;;;;5095123;28;20175;-42
2023/10/25 13:05:06;;;;;;;1.63;1.27;;;10.60;99.90;;;;;;5076831;28;20186;-43
2023/10/25 13:07:33;;;;;;;6.17;1.23;;;10.60;99.90;;;;;;5076838;28;20272;-43